Terminal Aerodrome Forecast
Issued by NWS Hastings, NE

Home | Current Version | Previous Version | Text Only | Print | Product List | Glossary On
Versions: 1 2 3 4 5 6 7 8 9 10 11 12 13 14 15 16 17 18 19 20 21 22 23 24 25
000
FTUS43 KGID 101739
TAFGRI
TAF
KGRI 101739Z 1018/1118 29012KT P6SM SCT250
     FM102000 33010KT P6SM SCT250
     FM102300 35008KT P6SM FEW250
     FM110600 02006KT 5SM BR SCT005 BKN015
     FM111100 VRB05KT 3SM BR BKN005
     FM111600 13006KT P6SM BKN005=

USA.gov is the U.S. government's official web portal to all federal, state and local government web resources and services.